createdAt,value
2018-09-24T00:00:43.016Z,11.00
2018-09-24T00:04:47.535Z,11.00
2018-09-24T00:08:51.567Z,11.00
2018-09-24T00:12:55.676Z,11.00
2018-09-24T00:16:59.750Z,11.10
2018-09-24T00:21:03.824Z,11.10
2018-09-24T00:25:07.888Z,11.10
2018-09-24T00:29:12.989Z,11.10
2018-09-24T00:33:17.234Z,11.10
2018-09-24T00:37:21.454Z,11.10
2018-09-24T00:41:25.776Z,11.10
2018-09-24T00:45:29.898Z,11.10
2018-09-24T00:49:34.013Z,11.10
2018-09-24T00:53:38.112Z,11.10
2018-09-24T00:57:42.223Z,11.00
2018-09-24T01:01:46.423Z,11.10
2018-09-24T01:05:50.516Z,11.00
2018-09-24T01:09:54.627Z,11.00
2018-09-24T01:13:58.702Z,11.00
2018-09-24T01:18:02.845Z,11.00
2018-09-24T01:22:06.920Z,11.00
2018-09-24T01:26:11.078Z,11.00
2018-09-24T01:30:20.041Z,11.00
2018-09-24T01:34:24.103Z,11.00
2018-09-24T01:38:28.487Z,11.00
2018-09-24T01:42:32.700Z,11.00
2018-09-24T01:46:36.811Z,11.00
2018-09-24T01:50:41.330Z,11.00
2018-09-24T01:54:45.734Z,10.90
2018-09-24T01:58:50.557Z,10.90
2018-09-24T02:02:54.622Z,11.00
2018-09-24T02:07:01.851Z,11.00
2018-09-24T02:11:07.026Z,11.00
2018-09-24T02:15:11.392Z,11.00
2018-09-24T02:19:15.664Z,11.00
2018-09-24T02:23:19.843Z,10.90
2018-09-24T02:33:47.910Z,10.80
2018-09-24T02:37:51.966Z,10.70
2018-09-24T02:41:56.791Z,10.80
2018-09-24T02:46:00.843Z,10.80
2018-09-24T02:50:04.963Z,10.80
2018-09-24T02:54:09.038Z,10.80
2018-09-24T02:58:18.582Z,10.80
2018-09-24T03:02:22.867Z,10.80
2018-09-24T03:06:28.553Z,10.90
2018-09-24T03:10:33.118Z,10.90
2018-09-24T03:14:37.252Z,10.90
2018-09-24T03:18:41.444Z,10.90
2018-09-24T03:22:48.960Z,10.80
2018-09-24T03:26:53.087Z,10.80
2018-09-24T03:30:57.751Z,10.80
2018-09-24T03:35:01.883Z,10.80
2018-09-24T03:39:06.617Z,10.80
2018-09-24T03:43:10.825Z,10.80
2018-09-24T03:47:15.132Z,10.90
2018-09-24T03:51:22.955Z,10.60
2018-09-24T03:55:27.032Z,10.30
2018-09-24T03:59:31.163Z,10.30
2018-09-24T04:03:35.658Z,10.40
2018-09-24T04:07:45.143Z,10.40
2018-09-24T04:11:54.857Z,10.50
2018-09-24T04:16:04.458Z,10.60
2018-09-24T04:20:13.931Z,10.70
2018-09-24T04:24:23.719Z,10.70
2018-09-24T04:28:33.301Z,10.70
2018-09-24T04:32:43.075Z,10.50
2018-09-24T04:36:52.515Z,10.60
2018-09-24T04:41:01.925Z,10.70
2018-09-24T04:45:11.309Z,10.70
2018-09-24T04:49:20.946Z,10.70
2018-09-24T04:53:31.145Z,10.60
2018-09-24T04:57:41.059Z,10.70
2018-09-24T05:01:50.552Z,10.70
2018-09-24T05:05:59.894Z,10.70
2018-09-24T05:10:09.508Z,10.70
2018-09-24T05:14:18.824Z,10.70
2018-09-24T05:18:28.298Z,10.70
2018-09-24T05:22:37.792Z,10.60
2018-09-24T05:26:47.256Z,10.70
2018-09-24T05:30:56.601Z,10.60
2018-09-24T05:35:05.915Z,10.60
2018-09-24T05:39:15.451Z,10.60
2018-09-24T05:43:24.891Z,10.70
2018-09-24T05:47:34.328Z,10.60
2018-09-24T05:51:43.744Z,10.70
2018-09-24T05:55:53.367Z,10.80
2018-09-24T06:00:02.685Z,10.80
2018-09-24T06:04:12.242Z,10.90
2018-09-24T06:08:21.721Z,10.70
2018-09-24T06:12:31.318Z,10.80
2018-09-24T06:16:40.734Z,11.10
2018-09-24T06:20:50.370Z,11.30
2018-09-24T06:24:59.962Z,11.40
2018-09-24T06:29:09.440Z,11.50
2018-09-24T06:33:18.925Z,11.40
2018-09-24T06:37:28.444Z,11.30
2018-09-24T06:41:38.052Z,11.40
2018-09-24T06:45:47.633Z,11.50
2018-09-24T06:49:57.293Z,11.70
2018-09-24T06:54:06.725Z,11.90
2018-09-24T06:58:16.360Z,12.10
2018-09-24T07:02:25.890Z,12.10
2018-09-24T07:06:35.251Z,12.10
2018-09-24T07:10:45.049Z,12.40
2018-09-24T07:14:54.611Z,12.50
2018-09-24T07:19:04.050Z,12.40
2018-09-24T07:23:14.123Z,12.10
2018-09-24T07:27:23.726Z,12.00
2018-09-24T07:31:33.148Z,12.10
2018-09-24T07:35:42.708Z,12.50
2018-09-24T07:39:52.364Z,12.60
2018-09-24T07:44:01.930Z,12.70
2018-09-24T07:48:11.263Z,13.10
2018-09-24T07:52:20.858Z,13.40
2018-09-24T07:56:30.195Z,14.00
2018-09-24T08:00:39.782Z,14.30
2018-09-24T08:04:50.409Z,14.60
2018-09-24T08:08:59.910Z,14.90
2018-09-24T08:13:09.406Z,14.90
2018-09-24T08:17:20.119Z,14.90
2018-09-24T08:21:29.521Z,15.30
2018-09-24T08:25:39.130Z,15.20
2018-09-24T08:29:48.724Z,15.00
2018-09-24T08:33:58.099Z,14.70
2018-09-24T08:38:07.682Z,14.80
2018-09-24T08:42:17.212Z,14.50
2018-09-24T08:46:26.579Z,14.40
2018-09-24T08:50:36.100Z,14.30
2018-09-24T08:54:45.551Z,14.10
2018-09-24T08:58:55.077Z,13.80
2018-09-24T09:03:04.580Z,14.10
2018-09-24T09:07:14.192Z,14.40
2018-09-24T09:11:23.718Z,14.40
2018-09-24T09:15:33.157Z,14.30
2018-09-24T09:19:42.704Z,14.50
2018-09-24T09:23:52.376Z,14.80
2018-09-24T09:32:28.267Z,14.90
2018-09-24T09:36:37.739Z,14.80
2018-09-24T09:40:47.262Z,14.60
2018-09-24T09:44:56.694Z,14.70
2018-09-24T09:49:06.196Z,15.20
2018-09-24T09:53:15.615Z,15.70
2018-09-24T09:57:25.455Z,19.30
2018-09-24T10:01:34.875Z,18.60
2018-09-24T10:05:44.443Z,17.30
2018-09-24T10:09:53.931Z,16.90
2018-09-24T10:14:03.382Z,16.40
2018-09-24T10:18:12.878Z,15.60
2018-09-24T10:22:23.432Z,15.50
2018-09-24T10:26:32.980Z,15.40
2018-09-24T10:30:42.482Z,15.40
2018-09-24T10:34:52.168Z,15.10
2018-09-24T10:39:01.722Z,14.80
2018-09-24T10:43:11.741Z,14.70
2018-09-24T10:47:21.359Z,14.80
2018-09-24T10:51:30.979Z,14.80
2018-09-24T10:55:40.520Z,15.00
2018-09-24T10:59:49.788Z,15.00
2018-09-24T11:03:59.266Z,15.10
2018-09-24T11:08:08.979Z,15.00
2018-09-24T11:12:18.602Z,15.00
2018-09-24T11:16:28.221Z,15.00
2018-09-24T11:20:37.765Z,15.30
2018-09-24T11:24:48.227Z,15.20
2018-09-24T11:28:57.828Z,15.30
2018-09-24T11:33:07.442Z,15.30
2018-09-24T11:37:16.927Z,15.30
2018-09-24T11:41:26.363Z,15.30
2018-09-24T11:45:35.883Z,15.30
2018-09-24T11:49:45.440Z,15.40
2018-09-24T11:53:55.145Z,15.10
2018-09-24T11:58:04.598Z,15.10
2018-09-24T12:02:14.150Z,15.00
2018-09-24T12:06:23.891Z,14.90
2018-09-24T12:10:33.422Z,14.60
2018-09-24T12:14:42.973Z,14.80
2018-09-24T12:18:52.548Z,15.00
2018-09-24T12:23:02.163Z,14.90
2018-09-24T12:27:11.991Z,14.90
2018-09-24T12:31:21.794Z,15.10
2018-09-24T12:35:31.339Z,15.20
2018-09-24T12:39:40.721Z,15.10
2018-09-24T12:43:50.378Z,15.10
2018-09-24T12:47:59.883Z,15.20
2018-09-24T12:52:09.279Z,15.20
2018-09-24T12:56:19.763Z,15.10
2018-09-24T13:00:29.316Z,15.00
2018-09-24T13:04:38.864Z,15.10
2018-09-24T13:08:48.959Z,15.00
2018-09-24T13:12:58.507Z,14.90
2018-09-24T13:17:07.991Z,14.90
2018-09-24T13:21:17.402Z,14.90
2018-09-24T13:25:27.171Z,15.00
2018-09-24T13:29:36.743Z,14.90
2018-09-24T13:33:46.204Z,14.90
2018-09-24T13:37:56.758Z,15.00
2018-09-24T13:42:06.084Z,14.90
2018-09-24T13:46:15.684Z,14.90
2018-09-24T13:50:25.463Z,14.80
2018-09-24T13:54:34.868Z,14.80
2018-09-24T13:58:44.839Z,14.80
2018-09-24T14:02:54.347Z,14.90
2018-09-24T14:07:04.000Z,14.90
2018-09-24T14:11:13.559Z,14.80
2018-09-24T14:15:23.239Z,14.70
2018-09-24T14:19:32.594Z,14.80
2018-09-24T14:23:42.159Z,14.90
2018-09-24T14:27:51.798Z,14.90
2018-09-24T14:32:01.560Z,14.70
2018-09-24T14:36:11.013Z,14.70
2018-09-24T14:40:20.539Z,14.70
2018-09-24T14:44:29.928Z,14.70
2018-09-24T14:48:39.410Z,14.60
2018-09-24T14:52:48.988Z,14.50
2018-09-24T14:56:58.538Z,14.50
2018-09-24T15:01:08.013Z,14.60
2018-09-24T15:05:17.610Z,14.70
2018-09-24T15:09:27.032Z,14.80
2018-09-24T15:13:36.507Z,14.50
2018-09-24T15:17:45.973Z,14.60
2018-09-24T15:21:55.395Z,14.50
2018-09-24T15:26:04.773Z,14.40
2018-09-24T15:30:14.391Z,14.30
2018-09-24T15:34:24.012Z,14.40
2018-09-24T15:38:33.571Z,14.30
2018-09-24T15:42:43.089Z,14.30
2018-09-24T15:46:52.709Z,14.30
2018-09-24T15:51:02.295Z,14.40
2018-09-24T15:55:11.856Z,14.40
2018-09-24T15:59:21.364Z,14.40
2018-09-24T16:03:30.983Z,14.50
2018-09-24T16:07:40.516Z,14.40
2018-09-24T16:11:50.162Z,14.60
2018-09-24T16:15:59.921Z,14.80
2018-09-24T16:20:10.152Z,14.30
2018-09-24T16:24:19.696Z,14.60
2018-09-24T16:28:29.376Z,14.60
2018-09-24T16:32:38.847Z,14.70
2018-09-24T16:36:48.463Z,14.90
2018-09-24T16:40:57.984Z,14.60
2018-09-24T16:45:07.439Z,14.40
2018-09-24T16:49:16.949Z,14.60
2018-09-24T16:53:27.587Z,14.60
2018-09-24T16:57:36.923Z,14.40
2018-09-24T17:01:46.531Z,14.40
2018-09-24T17:05:56.242Z,14.60
2018-09-24T17:10:05.690Z,14.40
2018-09-24T17:14:15.122Z,14.00
2018-09-24T17:18:24.907Z,13.90
2018-09-24T17:22:34.471Z,13.80
2018-09-24T17:26:43.972Z,13.70
2018-09-24T17:30:53.750Z,13.70
2018-09-24T17:35:03.436Z,13.60
2018-09-24T17:39:14.126Z,13.50
2018-09-24T17:43:23.675Z,13.50
2018-09-24T17:47:33.062Z,13.50
2018-09-24T17:51:43.092Z,13.50
2018-09-24T17:55:52.743Z,13.40
2018-09-24T18:00:02.445Z,13.40
2018-09-24T18:04:12.120Z,13.30
2018-09-24T18:08:22.139Z,13.30
2018-09-24T18:12:31.748Z,13.40
2018-09-24T18:16:41.513Z,13.40
2018-09-24T18:20:51.455Z,13.40
2018-09-24T18:25:01.084Z,13.40
2018-09-24T18:29:10.846Z,13.40
2018-09-24T18:33:20.416Z,13.20
2018-09-24T18:37:30.087Z,13.10
2018-09-24T18:41:39.609Z,13.00
2018-09-24T18:45:50.266Z,13.10
2018-09-24T18:50:00.560Z,13.10
2018-09-24T18:54:10.034Z,13.10
2018-09-24T18:58:19.512Z,13.10
2018-09-24T19:02:28.951Z,13.10
2018-09-24T19:06:38.499Z,13.00
2018-09-24T19:10:48.060Z,13.10
2018-09-24T19:14:57.619Z,13.10
2018-09-24T19:19:07.270Z,13.00
2018-09-24T19:23:17.706Z,12.90
2018-09-24T19:27:27.015Z,12.80
2018-09-24T19:31:36.549Z,12.90
2018-09-24T19:35:46.074Z,12.90
2018-09-24T19:39:55.530Z,12.80
2018-09-24T19:44:05.043Z,12.80
2018-09-24T19:48:15.341Z,12.80
2018-09-24T19:52:25.069Z,12.80
2018-09-24T19:56:36.301Z,12.70
2018-09-24T20:00:46.060Z,12.70
2018-09-24T20:04:55.625Z,12.70
2018-09-24T20:09:05.108Z,12.70
2018-09-24T20:13:14.614Z,12.70
2018-09-24T20:17:24.212Z,12.60
2018-09-24T20:21:33.721Z,12.60
2018-09-24T20:25:43.238Z,12.60
2018-09-24T20:29:52.819Z,12.60
2018-09-24T20:34:02.281Z,12.60
2018-09-24T20:38:12.244Z,12.50
2018-09-24T20:42:21.748Z,12.50
2018-09-24T20:46:31.246Z,12.50
2018-09-24T20:50:40.935Z,12.50
2018-09-24T20:54:50.340Z,12.50
2018-09-24T20:58:59.916Z,12.50
2018-09-24T21:03:09.461Z,12.40
2018-09-24T21:07:20.317Z,12.40
2018-09-24T21:11:29.847Z,12.40
2018-09-24T21:15:39.194Z,12.40
2018-09-24T21:19:48.624Z,12.40
2018-09-24T21:23:58.127Z,12.40
2018-09-24T21:28:07.799Z,12.20
2018-09-24T21:32:17.397Z,12.00
2018-09-24T21:36:27.066Z,11.90
2018-09-24T21:40:37.287Z,11.90
2018-09-24T21:44:46.890Z,12.00
2018-09-24T21:48:56.291Z,12.10
2018-09-24T21:53:05.878Z,12.10
2018-09-24T21:57:15.307Z,12.20
2018-09-24T22:01:24.811Z,12.20
2018-09-24T22:05:34.511Z,12.10
2018-09-24T22:09:44.378Z,12.20
2018-09-24T22:13:53.795Z,12.20
2018-09-24T22:18:03.383Z,12.10
2018-09-24T22:22:13.521Z,12.00
2018-09-24T22:26:23.906Z,12.00
2018-09-24T22:30:33.452Z,12.00
2018-09-24T22:34:43.114Z,12.00
2018-09-24T22:38:52.588Z,11.90
2018-09-24T22:43:02.088Z,11.90
2018-09-24T22:47:11.816Z,11.90
2018-09-24T22:51:21.487Z,11.90
2018-09-24T22:55:31.052Z,11.90
2018-09-24T22:59:40.956Z,11.80
2018-09-24T23:03:50.509Z,11.80
2018-09-24T23:08:00.099Z,11.70
2018-09-24T23:12:09.519Z,11.70
2018-09-24T23:16:19.115Z,11.70
2018-09-24T23:20:28.559Z,11.80
2018-09-24T23:24:38.014Z,11.70
2018-09-24T23:28:48.535Z,11.80
2018-09-24T23:32:58.032Z,11.70
2018-09-24T23:37:07.472Z,11.70
2018-09-24T23:41:19.388Z,11.70
2018-09-24T23:45:28.979Z,11.60
2018-09-24T23:49:38.428Z,11.50
2018-09-24T23:53:47.976Z,11.50
2018-09-24T23:57:57.403Z,11.50
